Time;durP1;ratioP1;P1;durP2;ratioP2;P2;SDS_P1;SDS_P2;PMS_P1;PMS_P2;Temp;Humidity;BMP_temperature;BMP_pressure;BME280_temperature;BME280_humidity;BME280_pressure;Samples;Min_cycle;Max_cycle;Signal;HPM_P1;HPM_P2
2023/03/19 00:00:36;;;;;;;25.40;12.00;;;6.90;99.90;;;;;;5032802;28;20223;-69
2023/03/19 00:03:03;;;;;;;22.40;11.27;;;6.80;99.90;;;;;;5014747;28;20552;-70
2023/03/19 00:05:30;;;;;;;26.63;11.93;;;6.80;99.90;;;;;;5014845;28;20305;-68
2023/03/19 00:07:57;;;;;;;25.07;11.30;;;6.80;99.90;;;;;;5014625;28;20685;-70
2023/03/19 00:10:24;;;;;;;25.47;11.67;;;6.80;99.90;;;;;;5014150;28;20649;-69
2023/03/19 00:12:51;;;;;;;30.57;11.93;;;6.80;99.90;;;;;;5014266;28;20240;-69
2023/03/19 00:15:18;;;;;;;24.57;11.87;;;6.70;99.90;;;;;;5032344;28;20194;-68
2023/03/19 00:17:45;;;;;;;28.53;12.13;;;6.70;99.90;;;;;;5013989;28;20217;-69
2023/03/19 00:20:13;;;;;;;23.60;11.90;;;6.70;99.90;;;;;;5014477;28;20223;-71
2023/03/19 00:22:40;;;;;;;26.13;11.73;;;6.70;99.90;;;;;;5014364;28;20313;-69
2023/03/19 00:25:08;;;;;;;27.37;12.20;;;6.60;99.90;;;;;;5014550;28;20229;-71
2023/03/19 00:27:36;;;;;;;29.97;12.03;;;6.60;99.90;;;;;;5031495;28;20191;-70
2023/03/19 00:30:05;;;;;;;27.77;12.30;;;6.60;99.90;;;;;;5014506;28;20199;-68
2023/03/19 00:32:32;;;;;;;27.73;12.03;;;6.60;99.90;;;;;;5014193;28;20301;-68
2023/03/19 00:35:00;;;;;;;24.77;11.83;;;6.60;99.90;;;;;;5014007;28;20198;-73
2023/03/19 00:37:27;;;;;;;27.07;12.13;;;6.50;99.90;;;;;;5014091;28;20234;-73
2023/03/19 00:39:54;;;;;;;28.50;11.97;;;6.40;99.90;;;;;;5013926;28;20228;-71
2023/03/19 00:42:22;;;;;;;23.80;11.50;;;6.50;99.90;;;;;;5014042;28;20209;-71
2023/03/19 00:44:49;;;;;;;28.07;12.00;;;6.50;99.90;;;;;;5030360;28;20319;-72
2023/03/19 00:47:16;;;;;;;23.97;11.23;;;6.40;99.90;;;;;;5031657;28;20588;-71
2023/03/19 00:49:43;;;;;;;24.27;11.67;;;6.40;99.90;;;;;;5032006;28;20218;-73
2023/03/19 00:52:10;;;;;;;28.67;12.50;;;6.30;99.90;;;;;;5014259;28;20205;-72
2023/03/19 00:54:36;;;;;;;23.10;11.67;;;6.30;99.90;;;;;;5032021;28;20206;-73
2023/03/19 00:57:03;;;;;;;24.90;11.70;;;6.30;99.90;;;;;;5013636;28;20233;-73
2023/03/19 00:59:30;;;;;;;23.37;11.77;;;6.30;99.90;;;;;;5013668;28;20227;-72
2023/03/19 01:01:57;;;;;;;24.63;11.97;;;6.20;99.90;;;;;;5031548;28;20558;-73
2023/03/19 01:04:24;;;;;;;28.67;12.43;;;6.10;99.90;;;;;;5013917;28;20207;-72
2023/03/19 01:06:51;;;;;;;23.53;11.67;;;6.10;99.90;;;;;;5029779;28;20711;-73
2023/03/19 01:09:18;;;;;;;24.47;11.60;;;6.10;99.90;;;;;;5030417;28;20199;-72
2023/03/19 01:11:45;;;;;;;24.83;11.27;;;6.10;99.90;;;;;;5013793;28;20198;-73
2023/03/19 01:14:15;;;;;;;26.07;12.07;;;6.20;99.90;;;;;;5031375;28;20640;-73
2023/03/19 01:16:41;;;;;;;27.53;12.43;;;6.10;99.90;;;;;;5013905;28;20202;-73
2023/03/19 01:19:08;;;;;;;25.87;11.43;;;6.10;99.90;;;;;;5013415;28;20222;-73
2023/03/19 01:21:35;;;;;;;26.20;12.23;;;6.10;99.90;;;;;;5031795;28;20202;-73
2023/03/19 01:24:02;;;;;;;24.30;11.50;;;6.10;99.90;;;;;;5017653;28;20203;-74
2023/03/19 01:26:29;;;;;;;25.17;11.60;;;6.10;99.90;;;;;;5017592;28;20202;-72
2023/03/19 01:28:57;;;;;;;22.90;11.67;;;6.20;99.90;;;;;;5047563;28;20224;-73
2023/03/19 01:31:24;;;;;;;23.83;11.60;;;6.10;99.90;;;;;;5037560;28;20199;-71
2023/03/19 01:33:51;;;;;;;23.70;11.73;;;6.10;99.90;;;;;;5037389;28;20198;-71
2023/03/19 01:36:18;;;;;;;27.53;12.00;;;6.10;99.90;;;;;;5037093;28;20217;-72
2023/03/19 01:38:45;;;;;;;24.43;11.67;;;6.20;99.90;;;;;;5037251;28;20296;-73
2023/03/19 01:41:12;;;;;;;29.07;12.50;;;6.10;99.90;;;;;;5037152;28;20270;-72
2023/03/19 01:43:39;;;;;;;24.40;12.17;;;6.10;99.90;;;;;;5037325;28;20276;-73
2023/03/19 01:46:26;;;;;;;23.80;11.93;;;6.10;99.90;;;;;;5055253;28;20210;-78
2023/03/19 01:49:00;;;;;;;27.67;11.93;;;6.10;99.90;;;;;;5036811;28;20285;-72
2023/03/19 01:51:31;;;;;;;27.00;12.37;;;6.00;99.90;;;;;;5054925;28;20747;-72
2023/03/19 01:54:01;;;;;;;25.17;12.17;;;6.00;99.90;;;;;;5036861;28;20193;-73
2023/03/19 01:56:33;;;;;;;25.73;11.90;;;6.00;99.90;;;;;;5037077;28;20666;-73
2023/03/19 01:59:06;;;;;;;26.50;12.00;;;6.00;99.90;;;;;;5036770;28;20195;-73
2023/03/19 02:01:37;;;;;;;23.40;12.00;;;6.00;99.90;;;;;;5036744;28;20201;-73
2023/03/19 02:04:05;;;;;;;28.80;11.67;;;6.00;99.90;;;;;;5053542;28;20198;-73
2023/03/19 02:06:37;;;;;;;24.17;11.77;;;6.00;99.90;;;;;;5036302;28;20219;-73
2023/03/19 02:09:05;;;;;;;26.53;12.17;;;5.90;99.90;;;;;;5054540;28;20226;-73
2023/03/19 02:11:32;;;;;;;23.93;12.27;;;5.90;99.90;;;;;;5036388;28;20652;-73
2023/03/19 02:13:59;;;;;;;27.17;12.03;;;5.80;99.90;;;;;;5036680;28;20194;-73
2023/03/19 02:16:26;;;;;;;24.67;11.83;;;5.80;99.90;;;;;;5054443;28;20217;-72
2023/03/19 02:18:55;;;;;;;25.67;12.10;;;5.90;99.90;;;;;;5052934;28;20284;-72
2023/03/19 02:21:22;;;;;;;25.57;11.60;;;5.90;99.90;;;;;;5053157;28;20691;-77
2023/03/19 02:24:10;;;;;;;26.27;11.97;;;5.90;99.90;;;;;;5036139;28;20221;-72
2023/03/19 02:26:38;;;;;;;26.30;11.63;;;5.80;99.90;;;;;;5054076;28;20213;-73
2023/03/19 02:29:05;;;;;;;27.90;11.50;;;5.80;99.90;;;;;;5036232;28;20620;-72
2023/03/19 02:31:32;;;;;;;24.40;11.63;;;5.80;99.90;;;;;;5052857;28;20209;-72
2023/03/19 02:34:02;;;;;;;24.27;11.80;;;5.70;99.90;;;;;;5052217;28;20289;-78
2023/03/19 02:36:43;;;;;;;28.50;12.33;;;5.70;99.90;;;;;;5052331;28;20202;-77
2023/03/19 02:39:21;;;;;;;25.27;12.07;;;5.70;99.90;;;;;;5052950;28;20187;-74
2023/03/19 02:41:49;;;;;;;25.13;12.07;;;5.70;99.90;;;;;;5036331;28;20210;-75
2023/03/19 02:44:18;;;;;;;26.27;12.30;;;5.60;99.90;;;;;;5053748;28;20284;-73
2023/03/19 02:46:45;;;;;;;28.57;12.10;;;5.60;99.90;;;;;;5053950;28;20199;-81
2023/03/19 02:49:12;;;;;;;26.90;12.47;;;5.50;99.90;;;;;;5036006;28;20248;-78
2023/03/19 02:51:40;;;;;;;27.10;11.83;;;5.40;99.90;;;;;;5036241;28;20198;-78
2023/03/19 02:54:08;;;;;;;27.47;12.43;;;5.50;99.90;;;;;;5052498;28;20187;-77
2023/03/19 02:56:35;;;;;;;25.20;11.97;;;5.50;99.90;;;;;;5036002;28;20564;-81
2023/03/19 02:59:02;;;;;;;27.67;12.00;;;5.40;99.90;;;;;;5053956;28;20206;-73
2023/03/19 03:01:28;;;;;;;27.60;12.23;;;5.40;99.90;;;;;;5053356;28;20221;-74
2023/03/19 03:03:55;;;;;;;27.93;12.03;;;5.40;99.90;;;;;;5054241;28;20197;-71
2023/03/19 03:06:22;;;;;;;25.10;11.40;;;5.40;99.90;;;;;;5035256;28;20198;-73
2023/03/19 03:08:49;;;;;;;26.30;12.20;;;5.40;99.90;;;;;;5035612;28;20290;-70
2023/03/19 03:11:16;;;;;;;26.20;11.60;;;5.40;99.90;;;;;;5053618;28;20185;-71
2023/03/19 03:13:43;;;;;;;24.33;11.90;;;5.40;99.90;;;;;;5035561;28;20628;-70
2023/03/19 03:16:10;;;;;;;25.03;11.87;;;5.40;99.90;;;;;;5051783;28;20284;-70
2023/03/19 03:18:37;;;;;;;27.57;12.43;;;5.40;99.90;;;;;;5052965;28;20191;-70
2023/03/19 03:21:04;;;;;;;27.40;11.77;;;5.30;99.90;;;;;;5036628;28;20211;-72
2023/03/19 03:23:30;;;;;;;23.80;11.27;;;5.30;99.90;;;;;;5052016;28;20197;-71
2023/03/19 03:25:57;;;;;;;24.37;11.97;;;5.30;99.90;;;;;;5035356;28;20204;-71
2023/03/19 03:28:24;;;;;;;25.93;11.90;;;5.30;99.90;;;;;;5035491;28;20230;-73
2023/03/19 03:30:57;;;;;;;23.70;11.90;;;5.30;99.90;;;;;;5035647;28;20295;-81
2023/03/19 03:33:25;;;;;;;24.60;11.67;;;5.30;99.90;;;;;;5053112;28;20228;-82
2023/03/19 03:35:51;;;;;;;25.73;11.87;;;5.30;99.90;;;;;;5051697;28;20202;-77
2023/03/19 03:38:18;;;;;;;29.10;12.03;;;5.30;99.90;;;;;;5035202;28;20205;-80
2023/03/19 03:40:52;;;;;;;26.47;11.60;;;5.20;99.90;;;;;;5052968;28;20658;-82
2023/03/19 03:43:20;;;;;;;23.13;10.87;;;5.20;99.90;;;;;;5034802;28;20198;-72
2023/03/19 03:45:47;;;;;;;25.20;12.20;;;5.20;99.90;;;;;;5051544;28;20248;-74
2023/03/19 03:48:15;;;;;;;27.50;11.43;;;5.20;99.90;;;;;;5034760;28;20189;-78
2023/03/19 03:50:42;;;;;;;25.47;11.43;;;5.20;99.90;;;;;;5051199;28;20201;-72
2023/03/19 03:53:10;;;;;;;25.43;11.40;;;5.10;99.90;;;;;;5034873;28;20536;-75
2023/03/19 03:55:38;;;;;;;26.83;11.67;;;5.10;99.90;;;;;;5052290;28;20198;-73
2023/03/19 03:58:05;;;;;;;23.00;11.87;;;5.00;99.90;;;;;;5050952;28;20248;-76
2023/03/19 04:00:32;;;;;;;22.17;11.63;;;5.00;99.90;;;;;;5051088;28;20586;-72
2023/03/19 04:02:59;;;;;;;27.00;11.87;;;5.00;99.90;;;;;;5034370;28;20213;-75
2023/03/19 04:05:26;;;;;;;24.67;11.20;;;5.00;99.90;;;;;;5034493;28;20236;-71
2023/03/19 04:07:53;;;;;;;27.13;12.30;;;5.00;99.90;;;;;;5051906;28;20206;-74
2023/03/19 04:10:20;;;;;;;27.87;12.17;;;4.90;99.90;;;;;;5034347;28;20194;-74
2023/03/19 04:12:47;;;;;;;28.37;11.90;;;5.00;99.90;;;;;;5052260;28;20673;-74
2023/03/19 04:15:14;;;;;;;26.87;11.97;;;5.00;99.90;;;;;;5034433;28;20224;-76
2023/03/19 04:17:41;;;;;;;27.13;11.90;;;5.00;99.90;;;;;;5052132;28;20217;-74
2023/03/19 04:20:09;;;;;;;24.27;11.77;;;5.00;99.90;;;;;;5051903;28;20213;-71
2023/03/19 04:22:36;;;;;;;23.37;11.17;;;5.00;99.90;;;;;;5034318;28;20221;-73
2023/03/19 04:25:04;;;;;;;23.40;11.20;;;4.90;99.90;;;;;;5051865;28;20210;-75
2023/03/19 04:27:31;;;;;;;24.43;11.80;;;5.00;99.90;;;;;;5033978;28;20208;-75
2023/03/19 04:29:58;;;;;;;24.33;11.17;;;4.90;99.90;;;;;;5033599;28;20270;-71
2023/03/19 04:32:25;;;;;;;23.97;11.77;;;4.90;99.90;;;;;;5034017;28;20206;-71
2023/03/19 04:34:52;;;;;;;25.20;11.87;;;4.90;99.90;;;;;;5017288;28;20211;-71
2023/03/19 04:37:18;;;;;;;27.50;11.27;;;4.80;99.90;;;;;;5051719;28;20203;-73
2023/03/19 04:39:46;;;;;;;25.27;12.13;;;4.80;99.90;;;;;;5051771;28;20197;-71
2023/03/19 04:42:12;;;;;;;26.67;11.97;;;4.80;99.90;;;;;;5052027;28;20517;-70
2023/03/19 04:44:39;;;;;;;25.10;11.43;;;4.80;99.90;;;;;;5051918;28;20200;-72
2023/03/19 04:47:06;;;;;;;22.83;11.13;;;4.80;99.90;;;;;;5033359;28;20260;-71
2023/03/19 04:49:34;;;;;;;24.30;11.63;;;4.80;99.90;;;;;;5050264;28;20284;-72
2023/03/19 04:52:00;;;;;;;25.97;11.73;;;4.70;99.90;;;;;;5033839;28;20228;-72
2023/03/19 04:54:27;;;;;;;25.40;11.60;;;4.70;99.90;;;;;;5033647;28;20191;-72
2023/03/19 04:56:54;;;;;;;23.73;11.00;;;4.70;99.90;;;;;;5032939;28;20654;-73
2023/03/19 04:59:21;;;;;;;26.30;11.83;;;4.70;99.90;;;;;;5033277;28;20295;-71
2023/03/19 05:01:48;;;;;;;28.37;12.10;;;4.70;99.90;;;;;;5033478;28;20228;-74
2023/03/19 05:04:16;;;;;;;28.27;12.13;;;4.70;99.90;;;;;;5051198;28;20720;-74
2023/03/19 05:06:43;;;;;;;28.23;12.37;;;4.60;99.90;;;;;;5033083;28;20221;-80
2023/03/19 05:09:10;;;;;;;25.07;11.67;;;4.60;99.90;;;;;;5034442;28;20209;-74
2023/03/19 05:11:37;;;;;;;25.27;12.20;;;4.50;99.90;;;;;;5038074;28;20201;-79
2023/03/19 05:14:04;;;;;;;27.23;11.87;;;4.50;99.90;;;;;;5038987;28;20558;-80
2023/03/19 05:16:31;;;;;;;25.97;12.27;;;4.50;99.90;;;;;;5037144;28;20196;-79
2023/03/19 05:18:59;;;;;;;27.87;12.13;;;4.40;99.90;;;;;;5043078;28;20213;-77
2023/03/19 05:21:26;;;;;;;26.67;12.63;;;4.40;99.90;;;;;;5036662;28;20248;-80
2023/03/19 05:23:55;;;;;;;27.50;12.47;;;4.40;99.90;;;;;;5033878;28;20194;-80
2023/03/19 05:26:23;;;;;;;28.57;13.00;;;4.40;99.90;;;;;;5033119;28;20209;-78
2023/03/19 05:28:49;;;;;;;27.67;12.67;;;4.40;99.90;;;;;;5032768;28;20230;-80
2023/03/19 05:31:16;;;;;;;27.13;12.90;;;4.40;99.90;;;;;;5051092;28;20345;-80
2023/03/19 05:33:43;;;;;;;28.70;12.83;;;4.40;99.90;;;;;;5049916;28;20192;-81
2023/03/19 05:36:11;;;;;;;26.73;13.23;;;4.50;99.90;;;;;;5050969;28;20196;-80
2023/03/19 05:38:38;;;;;;;25.87;13.73;;;4.50;99.90;;;;;;5033361;28;20195;-80
2023/03/19 05:41:06;;;;;;;27.87;12.87;;;4.60;99.90;;;;;;5033374;28;20235;-78
2023/03/19 05:43:33;;;;;;;29.70;13.60;;;4.60;99.90;;;;;;5032775;28;20216;-79
2023/03/19 05:46:00;;;;;;;30.30;13.60;;;4.60;99.90;;;;;;5051080;28;20208;-81
2023/03/19 05:48:27;;;;;;;27.30;13.93;;;4.70;99.90;;;;;;5049489;28;20302;-79
2023/03/19 05:50:55;;;;;;;29.00;14.17;;;4.90;99.90;;;;;;5033439;28;20216;-82
2023/03/19 05:53:22;;;;;;;27.33;13.30;;;4.80;99.90;;;;;;5050089;28;20230;-80
2023/03/19 05:55:48;;;;;;;28.27;13.67;;;4.90;99.90;;;;;;5033170;28;20221;-71
2023/03/19 05:58:15;;;;;;;30.97;13.23;;;4.90;99.90;;;;;;5050787;28;20631;-81
2023/03/19 06:00:42;;;;;;;27.30;13.03;;;5.00;99.90;;;;;;5033139;28;20322;-71
2023/03/19 06:03:09;;;;;;;27.43;13.43;;;5.00;99.90;;;;;;5049436;28;20225;-81
2023/03/19 06:05:37;;;;;;;28.57;13.60;;;5.10;99.90;;;;;;5033019;28;20330;-79
2023/03/19 06:08:04;;;;;;;29.50;13.07;;;5.20;99.90;;;;;;5033888;28;20233;-81
2023/03/19 06:10:32;;;;;;;29.97;14.03;;;5.30;99.90;;;;;;5056398;28;20554;-83
2023/03/19 06:12:59;;;;;;;31.03;13.27;;;5.40;99.90;;;;;;5061375;28;20263;-84
2023/03/19 06:15:26;;;;;;;31.60;13.50;;;5.50;99.90;;;;;;5036887;28;20293;-81
2023/03/19 06:17:53;;;;;;;29.47;13.13;;;5.60;99.90;;;;;;5036706;28;20550;-78
2023/03/19 06:20:20;;;;;;;28.00;13.93;;;5.70;99.90;;;;;;5036685;28;20217;-82
2023/03/19 06:22:47;;;;;;;26.40;12.77;;;5.80;99.90;;;;;;5037313;28;20209;-82
2023/03/19 06:25:14;;;;;;;26.87;13.37;;;5.90;99.90;;;;;;5036491;28;20226;-81
2023/03/19 06:27:41;;;;;;;36.30;14.13;;;6.00;99.90;;;;;;5052081;28;20236;-82
2023/03/19 06:30:09;;;;;;;26.60;13.23;;;6.10;99.90;;;;;;5036330;28;20202;-72
2023/03/19 06:32:37;;;;;;;32.40;13.63;;;6.10;99.90;;;;;;5054215;28;20194;-80
2023/03/19 06:35:05;;;;;;;28.23;13.83;;;6.20;99.90;;;;;;5020324;28;20290;-82
2023/03/19 06:37:32;;;;;;;32.03;14.03;;;6.40;99.90;;;;;;5052858;28;20202;-82
2023/03/19 06:39:59;;;;;;;33.83;15.00;;;6.40;99.90;;;;;;5036355;28;20201;-83
2023/03/19 06:42:26;;;;;;;32.67;14.50;;;6.50;99.90;;;;;;5053638;28;20297;-82
2023/03/19 06:44:53;;;;;;;32.27;14.83;;;6.60;99.90;;;;;;5019619;28;20203;-80
2023/03/19 06:47:20;;;;;;;29.80;13.83;;;6.80;99.90;;;;;;5035915;28;20648;-74
2023/03/19 06:49:47;;;;;;;29.50;13.87;;;7.00;99.90;;;;;;5036295;28;20543;-73
2023/03/19 06:52:14;;;;;;;31.80;14.50;;;7.20;99.90;;;;;;5035852;28;20199;-73
2023/03/19 06:54:41;;;;;;;28.87;13.27;;;7.30;99.90;;;;;;5035554;28;20215;-73
2023/03/19 06:57:08;;;;;;;34.33;14.27;;;7.40;99.90;;;;;;5053393;28;20201;-71
2023/03/19 06:59:35;;;;;;;31.53;14.10;;;7.60;99.90;;;;;;5035653;28;20197;-72
2023/03/19 07:02:02;;;;;;;26.07;12.73;;;7.70;99.90;;;;;;5055256;28;20225;-81
2023/03/19 07:04:29;;;;;;;23.63;11.73;;;7.70;99.90;;;;;;5057937;28;20227;-80
2023/03/19 07:06:56;;;;;;;25.40;11.83;;;7.80;99.90;;;;;;5058841;28;20225;-77
2023/03/19 07:09:23;;;;;;;24.50;12.30;;;8.00;99.90;;;;;;5037901;28;20201;-80
2023/03/19 07:11:49;;;;;;;27.17;11.40;;;8.10;99.90;;;;;;5035248;28;20675;-81
2023/03/19 07:14:17;;;;;;;29.03;12.43;;;8.20;99.90;;;;;;5035146;28;20206;-81
2023/03/19 07:16:48;;;;;;;25.43;11.33;;;8.30;99.90;;;;;;5053255;28;20637;-73
2023/03/19 07:19:15;;;;;;;21.23;11.47;;;8.30;99.90;;;;;;5034938;28;20205;-73
2023/03/19 07:21:42;;;;;;;21.77;11.40;;;8.40;99.90;;;;;;5034965;28;20348;-74
2023/03/19 07:24:08;;;;;;;20.93;11.13;;;8.40;99.90;;;;;;5035242;28;20195;-72
2023/03/19 07:26:35;;;;;;;22.90;10.97;;;8.40;99.90;;;;;;5052521;28;20282;-72
2023/03/19 07:29:02;;;;;;;22.30;11.30;;;8.50;99.90;;;;;;5034945;28;20715;-71
2023/03/19 07:31:30;;;;;;;24.23;11.40;;;8.60;99.90;;;;;;5052934;28;20282;-70
2023/03/19 07:33:57;;;;;;;24.67;10.93;;;8.60;99.90;;;;;;5034889;28;20249;-73
2023/03/19 07:36:23;;;;;;;19.47;10.57;;;8.70;99.90;;;;;;5052958;28;20179;-71
2023/03/19 07:38:50;;;;;;;21.30;11.07;;;8.70;99.90;;;;;;5034688;28;20201;-71
2023/03/19 07:41:17;;;;;;;24.20;11.73;;;8.80;99.90;;;;;;5034649;28;20951;-74
2023/03/19 07:43:44;;;;;;;21.27;11.07;;;8.90;99.90;;;;;;5034460;28;20199;-78
2023/03/19 07:46:11;;;;;;;22.10;11.60;;;9.00;99.90;;;;;;5036998;28;20532;-80
2023/03/19 07:48:38;;;;;;;21.17;11.30;;;9.10;99.90;;;;;;5045462;28;20182;-82
2023/03/19 07:51:08;;;;;;;22.93;11.33;;;9.30;99.90;;;;;;5040770;28;20198;-82
2023/03/19 07:53:38;;;;;;;22.80;10.70;;;9.40;99.90;;;;;;5053126;28;20191;-76
2023/03/19 07:56:05;;;;;;;23.80;10.07;;;9.40;99.90;;;;;;5034948;28;20203;-81
2023/03/19 07:58:32;;;;;;;20.57;10.40;;;9.50;99.90;;;;;;5053059;28;20617;-82
2023/03/19 08:00:59;;;;;;;21.33;10.30;;;9.60;99.90;;;;;;5050905;28;20672;-74
2023/03/19 08:03:26;;;;;;;23.70;10.77;;;9.70;99.90;;;;;;5053536;28;20631;-78
2023/03/19 08:05:53;;;;;;;19.50;10.13;;;9.80;99.90;;;;;;5053424;28;20578;-82
2023/03/19 08:08:20;;;;;;;21.87;10.33;;;9.90;99.90;;;;;;5054884;28;20214;-71
2023/03/19 08:10:49;;;;;;;22.90;10.90;;;10.20;99.90;;;;;;5035391;28;20191;-71
2023/03/19 08:13:16;;;;;;;21.13;10.20;;;10.30;99.90;;;;;;5052161;28;20602;-72
2023/03/19 08:15:43;;;;;;;22.70;10.17;;;10.40;99.90;;;;;;5034388;28;20207;-73
2023/03/19 08:18:10;;;;;;;18.30;10.10;;;10.50;99.90;;;;;;5052246;28;20290;-73
2023/03/19 08:20:37;;;;;;;19.67;10.00;;;10.60;99.90;;;;;;5034118;28;20203;-77
2023/03/19 08:23:04;;;;;;;19.77;10.87;;;10.80;99.90;;;;;;5051748;28;20194;-72
2023/03/19 08:25:31;;;;;;;20.67;10.43;;;11.20;99.90;;;;;;5034024;28;20203;-72
2023/03/19 08:28:01;;;;;;;20.30;9.90;;;11.80;99.90;;;;;;5033691;28;20223;-72
2023/03/19 08:30:28;;;;;;;19.60;10.17;;;12.30;99.90;;;;;;5033260;28;20285;-72
2023/03/19 08:32:55;;;;;;;19.33;10.87;;;12.60;98.10;;;;;;5033979;28;20295;-73
2023/03/19 08:35:25;;;;;;;20.53;9.93;;;13.00;97.00;;;;;;5034272;28;20198;-73
2023/03/19 08:37:53;;;;;;;21.43;10.17;;;13.50;95.80;;;;;;5033843;28;20640;-73
2023/03/19 08:40:20;;;;;;;19.43;10.47;;;14.00;93.50;;;;;;5034342;28;20198;-73
2023/03/19 08:42:47;;;;;;;18.90;9.90;;;14.00;92.20;;;;;;5034037;28;20226;-73
2023/03/19 08:45:15;;;;;;;19.00;10.17;;;13.90;92.10;;;;;;5033559;28;20197;-75
2023/03/19 08:47:42;;;;;;;16.73;9.20;;;13.80;92.10;;;;;;5033552;28;20205;-73
2023/03/19 08:50:10;;;;;;;19.40;10.03;;;13.90;91.80;;;;;;5033701;28;20194;-72
2023/03/19 08:52:37;;;;;;;18.80;9.73;;;14.00;91.50;;;;;;5050036;28;20219;-74
2023/03/19 08:55:06;;;;;;;17.63;9.30;;;14.30;91.30;;;;;;5033594;28;20555;-74
2023/03/19 08:57:34;;;;;;;15.93;9.47;;;14.10;90.30;;;;;;5033463;28;20205;-72
2023/03/19 09:00:05;;;;;;;16.17;8.87;;;14.00;90.70;;;;;;5033565;28;20225;-74
2023/03/19 09:02:32;;;;;;;17.17;9.13;;;14.00;91.40;;;;;;5033821;28;20232;-79
2023/03/19 09:04:59;;;;;;;17.87;9.13;;;14.30;90.80;;;;;;5052266;28;20637;-80
2023/03/19 09:07:26;;;;;;;15.50;8.30;;;14.80;90.10;;;;;;5054247;28;20229;-82
2023/03/19 09:09:52;;;;;;;13.80;8.10;;;14.90;88.20;;;;;;5054893;28;20199;-82
2023/03/19 09:12:19;;;;;;;15.60;8.00;;;15.20;86.30;;;;;;5052988;28;20198;-83
2023/03/19 09:14:46;;;;;;;13.90;7.60;;;15.40;84.20;;;;;;5036440;28;20278;-80
2023/03/19 09:17:14;;;;;;;14.80;7.60;;;15.60;83.70;;;;;;5034604;28;20282;-75
2023/03/19 09:19:41;;;;;;;16.77;8.17;;;15.70;79.50;;;;;;5033816;28;20194;-74
2023/03/19 09:22:08;;;;;;;11.90;7.80;;;15.60;79.30;;;;;;5035941;28;20230;-72
2023/03/19 09:24:35;;;;;;;15.87;7.47;;;15.30;79.20;;;;;;5051047;28;20199;-73
2023/03/19 09:27:14;;;;;;;13.30;7.63;;;15.10;80.10;;;;;;5033254;28;20203;-75
2023/03/19 09:29:41;;;;;;;13.20;7.10;;;15.10;81.30;;;;;;5033939;28;20230;-78
2023/03/19 09:32:08;;;;;;;14.13;7.50;;;15.30;81.60;;;;;;5035187;28;20202;-75
2023/03/19 09:34:35;;;;;;;15.53;8.10;;;15.70;80.30;;;;;;5035185;28;20201;-84
2023/03/19 09:37:10;;;;;;;12.10;7.27;;;15.80;78.60;;;;;;5033915;28;20211;-81
2023/03/19 09:39:37;;;;;;;14.63;7.33;;;15.90;77.80;;;;;;5035640;28;20217;-80
2023/03/19 09:42:41;;;;;;;13.07;7.00;;;16.00;77.00;;;;;;5035863;28;20226;-82
2023/03/19 09:45:17;;;;;;;11.60;7.20;;;15.90;77.20;;;;;;5055612;28;20670;-84
2023/03/19 09:47:47;;;;;;;15.60;7.23;;;15.90;76.40;;;;;;5056099;28;20191;-82
2023/03/19 09:50:23;;;;;;;15.43;7.17;;;15.90;75.20;;;;;;5037496;28;20198;-73
2023/03/19 09:53:09;;;;;;;11.37;6.80;;;15.90;75.50;;;;;;5038412;28;20197;-82
2023/03/19 09:55:42;;;;;;;14.10;6.97;;;15.90;75.80;;;;;;5056156;28;20202;-74
2023/03/19 09:58:19;;;;;;;14.77;7.40;;;16.20;76.70;;;;;;5037443;28;20209;-73
2023/03/19 10:00:51;;;;;;;13.10;7.27;;;16.60;74.70;;;;;;5058185;28;20202;-74
2023/03/19 10:03:30;;;;;;;12.03;7.20;;;16.80;73.00;;;;;;5038756;28;20226;-75
2023/03/19 10:06:25;;;;;;;12.27;6.83;;;16.60;72.80;;;;;;5055263;28;20612;-75
2023/03/19 10:08:59;;;;;;;12.20;6.70;;;16.90;73.90;;;;;;5053230;28;20191;-74
2023/03/19 10:12:00;;;;;;;13.23;6.87;;;17.40;70.50;;;;;;5036802;28;20213;-74
2023/03/19 10:14:59;;;;;;;10.80;6.67;;;17.30;69.20;;;;;;4940904;28;20231;-73
2023/03/19 10:17:38;;;;;;;10.80;6.43;;;17.80;69.80;;;;;;4973706;28;20217;-75
2023/03/19 10:20:29;;;;;;;11.70;7.17;;;18.20;67.80;;;;;;4957563;28;20789;-71
2023/03/19 10:23:18;;;;;;;13.53;7.40;;;18.50;65.70;;;;;;4972948;28;20229;-72
2023/03/19 10:25:45;;;;;;;11.57;6.87;;;18.50;64.00;;;;;;4956891;28;20201;-72
2023/03/19 10:28:17;;;;;;;12.97;7.33;;;18.70;63.50;;;;;;4989119;28;20225;-71
2023/03/19 10:30:54;;;;;;;11.33;6.80;;;18.70;61.90;;;;;;4989089;28;20209;-75
2023/03/19 10:33:31;;;;;;;10.60;6.73;;;18.70;62.10;;;;;;4957661;28;20201;-80
2023/03/19 10:36:08;;;;;;;12.40;7.17;;;19.00;60.60;;;;;;4973671;28;20279;-77
2023/03/19 10:38:42;;;;;;;12.83;7.10;;;19.30;59.50;;;;;;4978139;28;20209;-80
2023/03/19 10:41:23;;;;;;;13.03;6.80;;;19.60;59.60;;;;;;4993576;28;20201;-80
2023/03/19 10:43:58;;;;;;;11.10;6.70;;;19.90;59.00;;;;;;4990858;28;20189;-81
2023/03/19 10:46:25;;;;;;;13.50;6.90;;;20.40;58.20;;;;;;4978353;28;20348;-82
2023/03/19 10:48:52;;;;;;;11.57;6.83;;;20.90;57.90;;;;;;4957800;28;20618;-79
2023/03/19 10:51:26;;;;;;;11.83;7.47;;;21.50;56.90;;;;;;4990817;28;20209;-79
2023/03/19 10:53:56;;;;;;;12.40;7.47;;;21.40;54.80;;;;;;5037159;28;20617;-80
2023/03/19 10:56:25;;;;;;;11.80;6.80;;;21.20;54.20;;;;;;5036799;28;20191;-77
2023/03/19 10:59:18;;;;;;;9.83;6.40;;;21.10;54.30;;;;;;5055246;28;20513;-79
2023/03/19 11:01:46;;;;;;;11.73;6.90;;;21.10;53.80;;;;;;5054139;28;20294;-73
2023/03/19 11:04:16;;;;;;;11.27;7.10;;;20.90;53.80;;;;;;5052616;28;20214;-79
2023/03/19 11:06:52;;;;;;;11.93;7.23;;;20.70;54.10;;;;;;5035638;28;20214;-79
2023/03/19 11:09:44;;;;;;;16.13;7.03;;;20.90;54.90;;;;;;5019751;28;20650;-76
2023/03/19 11:12:42;;;;;;;11.00;7.00;;;20.40;53.90;;;;;;5052583;28;20182;-76
2023/03/19 11:15:20;;;;;;;13.10;8.10;;;20.20;54.80;;;;;;5032480;28;20444;-72
2023/03/19 11:18:04;;;;;;;11.67;7.10;;;19.90;55.60;;;;;;5053353;28;20190;-79
2023/03/19 11:20:34;;;;;;;13.03;7.00;;;19.80;56.00;;;;;;5035646;28;20206;-74
2023/03/19 11:23:06;;;;;;;12.53;7.13;;;19.60;56.00;;;;;;5052368;28;20223;-82
2023/03/19 11:25:54;;;;;;;13.27;7.10;;;20.00;55.60;;;;;;5035713;28;20195;-75
2023/03/19 11:28:25;;;;;;;13.33;7.03;;;20.00;55.40;;;;;;5035877;28;20241;-75
2023/03/19 11:31:10;;;;;;;11.70;7.23;;;20.20;54.90;;;;;;5035343;28;20209;-79
2023/03/19 11:33:49;;;;;;;13.30;7.33;;;20.20;55.20;;;;;;5052946;28;20195;-81
2023/03/19 11:36:40;;;;;;;11.07;7.33;;;20.00;54.80;;;;;;5053298;28;20195;-81
2023/03/19 11:39:36;;;;;;;12.33;7.40;;;20.40;54.80;;;;;;5053778;28;20218;-82
2023/03/19 11:42:32;;;;;;;11.80;7.23;;;19.50;55.40;;;;;;5036229;28;20210;-77
2023/03/19 11:45:19;;;;;;;12.27;6.80;;;19.50;55.80;;;;;;4972620;28;20197;-87
2023/03/19 11:47:58;;;;;;;10.70;7.30;;;19.50;56.40;;;;;;4972527;28;20201;-83
2023/03/19 11:51:01;;;;;;;12.32;7.55;;;19.70;55.60;;;;;;4971999;28;20476;-81
2023/03/19 11:53:40;;;;;;;11.57;7.40;;;19.30;55.30;;;;;;4955908;28;20368;-84
2023/03/19 11:56:32;;;;;;;11.30;7.20;;;19.20;56.00;;;;;;4956676;28;20209;-88
2023/03/19 11:59:02;;;;;;;11.27;7.07;;;19.30;56.10;;;;;;4972152;28;20684;-89
2023/03/19 12:02:09;;;;;;;13.20;8.30;;;20.20;55.30;;;;;;4971343;28;20439;-83
2023/03/19 12:04:48;;;;;;;12.23;7.50;;;20.60;53.50;;;;;;4971925;28;20288;-85
2023/03/19 12:07:43;;;;;;;13.27;7.97;;;20.70;53.50;;;;;;4954886;28;20225;-83
2023/03/19 12:10:27;;;;;;;11.80;7.67;;;20.80;52.70;;;;;;4948999;28;20201;-82
2023/03/19 12:12:56;;;;;;;11.57;7.40;;;21.40;52.90;;;;;;4987568;28;20210;-81
2023/03/19 12:15:34;;;;;;;13.00;7.93;;;21.60;51.40;;;;;;4956507;28;20233;-78
2023/03/19 12:18:07;;;;;;;14.10;7.93;;;21.70;51.70;;;;;;4955283;28;20754;-80
2023/03/19 12:20:46;;;;;;;14.03;7.67;;;21.30;51.20;;;;;;4954967;28;20194;-79
2023/03/19 12:23:28;;;;;;;12.95;8.38;;;21.30;51.20;;;;;;5066596;28;20437;-81
2023/03/19 12:26:03;;;;;;;14.30;7.70;;;21.30;51.20;;;;;;5052469;28;20589;-81
2023/03/19 12:28:38;;;;;;;14.57;7.97;;;21.30;51.40;;;;;;5032795;28;20230;-80
2023/03/19 12:31:33;;;;;;;11.97;7.50;;;20.90;51.40;;;;;;5035816;28;20620;-82
2023/03/19 12:34:00;;;;;;;12.80;8.00;;;20.70;52.30;;;;;;5031848;28;20294;-73
2023/03/19 12:36:32;;;;;;;13.00;7.87;;;20.30;52.30;;;;;;5037681;28;20199;-77
2023/03/19 12:39:11;;;;;;;10.77;6.93;;;20.40;52.30;;;;;;5035551;28;20199;-78
2023/03/19 12:41:42;;;;;;;11.33;7.20;;;20.50;52.30;;;;;;5024458;28;20409;-76
2023/03/19 12:44:17;;;;;;;13.17;7.40;;;21.00;51.50;;;;;;5014454;28;20199;-73
2023/03/19 12:47:08;;;;;;;10.93;7.13;;;21.40;51.00;;;;;;5014819;28;20191;-73
2023/03/19 12:49:39;;;;;;;11.97;7.50;;;21.70;50.70;;;;;;5036971;28;20208;-77
2023/03/19 12:52:32;;;;;;;13.10;7.73;;;21.80;50.70;;;;;;5052037;28;20233;-81